createdAt,value
2022-11-24T00:01:13.167Z,16.45
2022-11-24T00:03:40.367Z,23.33
2022-11-24T00:06:15.349Z,11.70
2022-11-24T00:08:44.632Z,21.00
2022-11-24T00:11:15.408Z,12.63
2022-11-24T00:13:43.194Z,10.30
2022-11-24T00:16:11.861Z,12.88
2022-11-24T00:18:40.369Z,13.88
2022-11-24T00:21:07.663Z,15.52
2022-11-24T00:23:35.637Z,13.70
2022-11-24T00:26:10.320Z,15.48
2022-11-24T00:28:38.328Z,18.02
2022-11-24T00:31:17.161Z,13.23
2022-11-24T00:33:45.426Z,16.67
2022-11-24T00:36:12.559Z,17.80
2022-11-24T00:38:39.649Z,13.85
2022-11-24T00:41:07.032Z,14.18
2022-11-24T00:43:34.273Z,16.83
2022-11-24T00:46:01.375Z,15.50
2022-11-24T00:48:28.850Z,8.30
2022-11-24T00:51:10.269Z,13.82
2022-11-24T00:53:37.835Z,15.15
2022-11-24T00:56:05.888Z,18.55
2022-11-24T00:58:33.846Z,19.30
2022-11-24T01:01:06.586Z,14.75
2022-11-24T01:03:34.424Z,15.23
2022-11-24T01:06:10.385Z,16.23
2022-11-24T01:08:38.548Z,16.50
2022-11-24T01:11:25.545Z,15.27
2022-11-24T01:13:55.709Z,8.82
2022-11-24T01:16:24.419Z,14.40
2022-11-24T01:18:52.277Z,13.70
2022-11-24T01:21:19.527Z,10.57
2022-11-24T01:23:46.864Z,13.82
2022-11-24T01:26:19.860Z,17.05
2022-11-24T01:28:47.938Z,14.80
2022-11-24T01:31:16.346Z,12.30
2022-11-24T01:33:43.544Z,17.63
2022-11-24T01:36:10.583Z,17.48
2022-11-24T01:38:37.708Z,15.43
2022-11-24T01:41:06.234Z,12.60
2022-11-24T01:43:34.212Z,16.92
2022-11-24T01:46:16.446Z,11.75
2022-11-24T01:48:49.395Z,13.77
2022-11-24T01:51:27.032Z,9.50
2022-11-24T01:53:59.666Z,14.77
2022-11-24T01:58:59.293Z,12.38
2022-11-24T02:01:27.961Z,16.40
2022-11-24T02:03:56.494Z,9.75
2022-11-24T02:06:27.567Z,13.73
2022-11-24T02:08:59.633Z,14.35
2022-11-24T02:11:30.979Z,10.63
2022-11-24T02:13:58.185Z,13.35
2022-11-24T02:16:25.860Z,13.35
2022-11-24T02:18:53.282Z,10.50
2022-11-24T02:21:20.322Z,9.48
2022-11-24T02:23:47.307Z,13.20
2022-11-24T02:26:41.609Z,13.25
2022-11-24T02:29:10.552Z,13.23
2022-11-24T02:31:39.051Z,14.35
2022-11-24T02:34:06.166Z,13.02
2022-11-24T02:36:33.150Z,12.30
2022-11-24T02:39:00.144Z,17.02
2022-11-24T02:41:29.006Z,8.52
2022-11-24T02:43:58.720Z,13.00
2022-11-24T02:46:26.197Z,11.68
2022-11-24T02:48:53.609Z,14.32
2022-11-24T02:51:20.644Z,13.52
2022-11-24T02:53:47.654Z,11.82
2022-11-24T02:56:14.667Z,11.60
2022-11-24T02:58:41.658Z,12.15
2022-11-24T03:01:08.988Z,12.77
2022-11-24T03:03:36.164Z,12.90
2022-11-24T03:06:03.181Z,13.95
2022-11-24T03:08:30.440Z,13.75
2022-11-24T03:10:57.440Z,12.18
2022-11-24T03:13:24.530Z,13.68
2022-11-24T03:15:51.558Z,11.75
2022-11-24T03:18:18.853Z,12.68
2022-11-24T03:20:45.970Z,13.02
2022-11-24T03:23:12.963Z,11.55
2022-11-24T03:25:40.064Z,11.88
2022-11-24T03:28:07.248Z,8.98
2022-11-24T03:30:34.311Z,12.93
2022-11-24T03:33:01.239Z,7.80
2022-11-24T03:35:28.311Z,12.20
2022-11-24T03:37:55.330Z,12.68
2022-11-24T03:40:22.451Z,13.13
2022-11-24T03:42:49.525Z,17.63
2022-11-24T03:46:12.466Z,9.77
2022-11-24T03:48:03.734Z,11.20
2022-11-24T03:50:30.814Z,12.40
2022-11-24T03:52:58.082Z,11.63
2022-11-24T03:55:25.130Z,12.13
2022-11-24T03:57:52.140Z,13.75
2022-11-24T04:00:19.279Z,12.65
2022-11-24T04:02:46.396Z,15.82
2022-11-24T04:05:13.484Z,12.68
2022-11-24T04:07:40.764Z,9.43
2022-11-24T04:10:08.134Z,11.43
2022-11-24T04:12:44.148Z,11.60
2022-11-24T04:15:13.586Z,13.90
2022-11-24T04:17:40.914Z,16.05
2022-11-24T04:20:09.371Z,12.05
2022-11-24T04:22:36.656Z,15.35
2022-11-24T04:25:04.599Z,14.88
2022-11-24T04:27:33.830Z,14.30
2022-11-24T04:30:01.037Z,10.48
2022-11-24T04:32:28.653Z,13.77
2022-11-24T04:34:55.810Z,15.05
2022-11-24T04:37:23.085Z,13.43
2022-11-24T04:39:50.386Z,10.77
2022-11-24T04:42:17.453Z,12.57
2022-11-24T04:44:44.556Z,13.68
2022-11-24T04:47:21.310Z,10.88
2022-11-24T04:49:51.183Z,10.35
2022-11-24T04:52:20.160Z,13.85
2022-11-24T04:54:48.001Z,15.35
2022-11-24T04:57:25.553Z,14.10
2022-11-24T04:59:52.982Z,10.50
2022-11-24T05:02:20.661Z,11.65
2022-11-24T05:04:48.579Z,12.23
2022-11-24T05:07:19.070Z,10.85
2022-11-24T05:10:06.013Z,14.35
2022-11-24T05:12:33.233Z,11.88
2022-11-24T05:15:04.647Z,10.77
2022-11-24T05:17:34.420Z,12.25
2022-11-24T05:20:02.074Z,11.00
2022-11-24T05:22:29.960Z,10.15
2022-11-24T05:24:57.103Z,12.75
2022-11-24T05:27:24.136Z,12.55
2022-11-24T05:29:51.211Z,11.95
2022-11-24T05:32:18.283Z,13.25
2022-11-24T05:34:45.433Z,11.02
2022-11-24T05:40:15.406Z,10.53
2022-11-24T05:46:17.022Z,13.15
2022-11-24T05:48:45.317Z,10.25
2022-11-24T05:51:12.899Z,8.88
2022-11-24T05:53:40.786Z,11.30
2022-11-24T05:56:08.749Z,8.88
2022-11-24T05:58:36.557Z,9.13
2022-11-24T06:01:07.491Z,12.15
2022-11-24T06:38:53.162Z,8.98
2022-11-24T06:41:21.061Z,7.00
2022-11-24T06:43:48.881Z,10.05
2022-11-24T06:49:12.314Z,8.73
2022-11-24T06:51:39.935Z,7.28
2022-11-24T06:54:08.184Z,6.10
2022-11-24T06:56:35.533Z,7.35
2022-11-24T07:01:57.708Z,6.50
2022-11-24T07:04:24.911Z,6.78
2022-11-24T07:06:51.936Z,7.93
2022-11-24T07:09:18.990Z,7.63
2022-11-24T07:11:46.147Z,6.97
2022-11-24T07:14:13.304Z,4.95
2022-11-24T07:16:40.842Z,6.55
2022-11-24T07:19:10.635Z,7.05
2022-11-24T07:21:37.664Z,9.80
2022-11-24T07:24:05.144Z,6.57
2022-11-24T07:26:37.192Z,7.82
2022-11-24T07:29:05.428Z,8.23
2022-11-24T07:31:32.665Z,7.47
2022-11-24T07:33:59.725Z,6.00
2022-11-24T07:36:26.848Z,6.40
2022-11-24T07:38:53.993Z,6.03
2022-11-24T07:41:21.128Z,6.78
2022-11-24T07:43:49.120Z,6.07
2022-11-24T07:46:19.367Z,4.78
2022-11-24T07:48:47.005Z,7.28
2022-11-24T07:51:14.033Z,6.32
2022-11-24T07:53:41.149Z,9.20
2022-11-24T07:56:09.764Z,7.93
2022-11-24T07:58:37.607Z,6.70
2022-11-24T08:01:16.401Z,4.93
2022-11-24T08:03:45.004Z,6.55
2022-11-24T08:06:35.885Z,5.85
2022-11-24T08:09:00.030Z,7.93
2022-11-24T08:11:27.922Z,6.97
2022-11-24T08:13:54.869Z,7.95
2022-11-24T08:16:21.827Z,5.35
2022-11-24T08:18:56.242Z,6.43
2022-11-24T08:21:24.429Z,8.48
2022-11-24T08:23:56.441Z,11.18
2022-11-24T08:26:26.499Z,7.07
2022-11-24T08:28:57.284Z,6.97
2022-11-24T08:31:27.785Z,9.57
2022-11-24T08:33:56.894Z,7.32
2022-11-24T08:36:25.099Z,7.65
2022-11-24T08:38:58.669Z,8.98
2022-11-24T08:41:28.781Z,7.60
2022-11-24T08:43:57.051Z,8.88
2022-11-24T08:46:26.487Z,8.70
2022-11-24T08:48:56.736Z,9.85
2022-11-24T08:51:27.719Z,9.57
2022-11-24T08:54:01.199Z,8.68
2022-11-24T08:56:32.234Z,10.52
2022-11-24T08:59:01.303Z,11.02
2022-11-24T09:01:32.901Z,9.40
2022-11-24T09:04:00.823Z,10.90
2022-11-24T09:06:32.034Z,10.48
2022-11-24T09:09:00.466Z,8.57
2022-11-24T09:11:28.297Z,10.85
2022-11-24T09:14:00.705Z,9.35
2022-11-24T09:16:32.509Z,9.50
2022-11-24T09:19:05.509Z,9.07
2022-11-24T09:21:38.089Z,12.98
2022-11-24T09:24:10.346Z,10.32
2022-11-24T09:26:46.090Z,8.88
2022-11-24T09:29:15.792Z,10.82
2022-11-24T09:31:44.121Z,13.45
2022-11-24T09:34:16.284Z,14.52
2022-11-24T09:36:44.548Z,12.18
2022-11-24T09:39:12.829Z,10.18
2022-11-24T09:41:55.960Z,11.70
2022-11-24T09:45:00.297Z,14.02
2022-11-24T09:47:56.144Z,11.82
2022-11-24T09:50:32.186Z,11.18
2022-11-24T09:53:18.450Z,12.75
2022-11-24T09:56:04.343Z,13.23
2022-11-24T09:58:54.068Z,16.90
2022-11-24T10:01:31.877Z,14.57
2022-11-24T10:04:06.302Z,22.75
2022-11-24T10:06:48.994Z,23.88
2022-11-24T10:09:36.706Z,30.77
2022-11-24T10:12:10.813Z,20.98
2022-11-24T10:15:14.800Z,17.52
2022-11-24T10:18:05.157Z,18.77
2022-11-24T10:20:56.137Z,14.57
2022-11-24T10:23:46.862Z,17.27
2022-11-24T10:26:48.112Z,12.48
2022-11-24T10:29:42.144Z,10.82
2022-11-24T10:32:43.202Z,14.85
2022-11-24T10:35:23.936Z,15.23
2022-11-24T10:38:00.728Z,17.65
2022-11-24T10:43:29.735Z,17.45
2022-11-24T10:46:16.386Z,21.20
2022-11-24T10:49:07.198Z,17.05
2022-11-24T10:51:46.587Z,17.27
2022-11-24T10:54:22.498Z,24.70
2022-11-24T10:56:54.868Z,35.47
2022-11-24T10:59:31.345Z,28.27
2022-11-24T11:02:02.915Z,23.17
2022-11-24T11:04:35.204Z,20.42
2022-11-24T11:09:41.080Z,21.30
2022-11-24T11:12:43.489Z,23.13
2022-11-24T11:15:35.097Z,20.13
2022-11-24T11:18:08.748Z,16.42
2022-11-24T11:20:38.575Z,17.10
2022-11-24T11:23:39.713Z,19.25
2022-11-24T11:26:58.606Z,16.58
2022-11-24T11:35:14.539Z,15.60
2022-11-24T11:37:45.658Z,14.43
2022-11-24T11:40:24.203Z,14.38
2022-11-24T11:43:06.863Z,11.52
2022-11-24T11:45:38.518Z,12.10
2022-11-24T11:48:18.493Z,13.18
2022-11-24T11:54:18.139Z,15.18
2022-11-24T11:56:52.257Z,18.40
2022-11-24T11:59:40.089Z,13.80
2022-11-24T12:02:23.812Z,10.90
2022-11-24T12:04:59.493Z,10.32
2022-11-24T12:07:47.412Z,16.55
2022-11-24T12:10:25.251Z,14.65
2022-11-24T12:13:19.513Z,19.75
2022-11-24T12:15:50.290Z,24.23
2022-11-24T12:18:55.912Z,14.00
2022-11-24T12:21:26.462Z,17.38
2022-11-24T12:24:18.999Z,10.73
2022-11-24T12:26:53.686Z,16.93
2022-11-24T12:29:33.009Z,14.52
2022-11-24T12:32:47.918Z,15.43
2022-11-24T12:35:37.708Z,9.98
2022-11-24T12:38:28.270Z,11.02
2022-11-24T12:41:33.248Z,12.77
2022-11-24T12:43:53.306Z,14.88
2022-11-24T12:46:45.355Z,11.10
2022-11-24T12:49:47.455Z,10.98
2022-11-24T12:52:18.366Z,11.02
2022-11-24T12:54:46.693Z,14.82
2022-11-24T12:57:34.789Z,13.85
2022-11-24T13:00:17.205Z,13.82
2022-11-24T13:02:56.615Z,14.30
2022-11-24T13:05:23.567Z,11.85
2022-11-24T13:08:01.074Z,12.88
2022-11-24T13:13:30.256Z,13.38
2022-11-24T13:16:35.153Z,11.07
2022-11-24T13:19:02.853Z,10.55
2022-11-24T13:21:45.990Z,15.25
2022-11-24T13:24:19.202Z,13.10
2022-11-24T13:26:49.101Z,11.52
2022-11-24T13:29:34.464Z,14.80
2022-11-24T13:32:29.232Z,11.00
2022-11-24T13:35:13.711Z,11.00
2022-11-24T13:37:42.077Z,12.50
2022-11-24T13:40:12.179Z,13.70
2022-11-24T13:42:54.425Z,12.85
2022-11-24T13:45:39.858Z,15.75
2022-11-24T13:48:22.475Z,12.73
2022-11-24T13:50:50.071Z,18.70
2022-11-24T13:53:32.176Z,13.48
2022-11-24T13:56:14.307Z,17.13
2022-11-24T13:58:46.534Z,20.17
2022-11-24T14:01:16.487Z,19.42
2022-11-24T14:04:33.648Z,17.27
2022-11-24T14:07:08.699Z,21.85
2022-11-24T14:09:39.016Z,18.33
2022-11-24T14:12:16.898Z,15.93
2022-11-24T14:15:13.925Z,17.20
2022-11-24T14:17:43.158Z,24.42
2022-11-24T14:20:29.674Z,24.98
2022-11-24T14:22:58.443Z,19.85
2022-11-24T14:25:32.566Z,23.70
2022-11-24T14:28:01.135Z,20.23
2022-11-24T14:30:28.835Z,21.55
2022-11-24T14:33:00.487Z,21.65
2022-11-24T14:35:44.445Z,22.92
2022-11-24T14:38:13.180Z,23.30
2022-11-24T14:40:53.473Z,18.90
2022-11-24T14:43:27.100Z,25.65
2022-11-24T14:46:00.387Z,22.60
2022-11-24T14:48:33.747Z,25.92
2022-11-24T14:51:18.759Z,30.20
2022-11-24T14:53:50.322Z,23.38
2022-11-24T14:56:27.950Z,23.52
2022-11-24T14:58:59.028Z,33.00
2022-11-24T15:01:33.298Z,18.20
2022-11-24T15:04:39.005Z,22.40
2022-11-24T15:07:31.928Z,22.63
2022-11-24T15:10:02.243Z,17.00
2022-11-24T15:12:31.129Z,19.27
2022-11-24T15:15:03.425Z,21.13
2022-11-24T15:17:31.320Z,16.83
2022-11-24T15:20:03.783Z,19.35
2022-11-24T15:22:40.700Z,20.98
2022-11-24T15:25:26.448Z,16.77
2022-11-24T15:27:53.694Z,15.88
2022-11-24T15:30:21.418Z,17.55
2022-11-24T15:32:59.755Z,11.95
2022-11-24T15:35:33.929Z,15.73
2022-11-24T15:38:01.465Z,18.17
2022-11-24T15:40:28.880Z,19.98
2022-11-24T15:43:00.780Z,15.45
2022-11-24T15:45:34.803Z,17.45
2022-11-24T15:48:02.112Z,20.63
2022-11-24T15:50:29.831Z,15.82
2022-11-24T15:52:58.037Z,23.35
2022-11-24T15:55:25.481Z,12.32
2022-11-24T15:57:53.191Z,13.15
2022-11-24T16:00:23.668Z,16.58
2022-11-24T16:02:51.427Z,17.00
2022-11-24T16:05:19.118Z,11.10
2022-11-24T16:07:46.492Z,14.93
2022-11-24T16:10:36.354Z,16.00
2022-11-24T16:13:06.624Z,16.38
2022-11-24T16:15:34.512Z,13.40
2022-11-24T16:18:08.498Z,14.52
2022-11-24T16:20:38.577Z,12.52
2022-11-24T16:23:08.095Z,14.15
2022-11-24T16:25:38.568Z,12.43
2022-11-24T16:28:08.886Z,14.82
2022-11-24T16:30:39.828Z,17.33
2022-11-24T16:33:12.700Z,17.13
2022-11-24T16:35:42.875Z,22.27
2022-11-24T16:38:23.031Z,18.85
2022-11-24T16:40:57.053Z,20.05
2022-11-24T16:43:27.583Z,16.73
2022-11-24T16:46:20.471Z,18.42
2022-11-24T16:48:50.134Z,20.55
2022-11-24T16:51:18.991Z,20.45
2022-11-24T16:53:47.074Z,23.95
2022-11-24T16:56:16.706Z,18.25
2022-11-24T16:58:44.442Z,17.95
2022-11-24T17:01:13.641Z,21.90
2022-11-24T17:03:41.299Z,18.98
2022-11-24T17:06:13.432Z,23.83
2022-11-24T17:08:41.563Z,24.98
2022-11-24T17:11:20.337Z,21.98
2022-11-24T17:13:49.332Z,18.10
2022-11-24T17:16:21.718Z,20.58
2022-11-24T17:18:56.938Z,15.20
2022-11-24T17:21:28.065Z,20.13
2022-11-24T17:23:58.870Z,17.23
2022-11-24T17:26:28.086Z,17.23
2022-11-24T17:28:56.228Z,19.70
2022-11-24T17:31:27.660Z,13.43
2022-11-24T17:33:57.029Z,17.80
2022-11-24T17:36:25.477Z,15.90
2022-11-24T17:38:53.483Z,18.23
2022-11-24T17:41:22.168Z,17.45
2022-11-24T17:43:55.899Z,20.92
2022-11-24T17:46:24.779Z,23.00
2022-11-24T17:48:53.005Z,24.55
2022-11-24T17:51:23.020Z,20.33
2022-11-24T17:53:52.491Z,22.63
2022-11-24T17:56:23.978Z,22.92
2022-11-24T17:58:59.315Z,25.38
2022-11-24T18:01:30.339Z,21.05
2022-11-24T18:03:59.306Z,20.38
2022-11-24T18:06:29.058Z,27.33
2022-11-24T18:08:58.272Z,30.20
2022-11-24T18:11:31.531Z,23.92
2022-11-24T18:14:03.043Z,24.25
2022-11-24T18:16:35.380Z,27.75
2022-11-24T18:19:10.161Z,19.25
2022-11-24T18:21:42.583Z,17.08
2022-11-24T18:24:12.415Z,19.08
2022-11-24T18:26:42.213Z,18.08
2022-11-24T18:29:11.145Z,13.68
2022-11-24T18:31:40.008Z,13.35
2022-11-24T18:34:07.928Z,12.80
2022-11-24T18:36:36.666Z,9.90
2022-11-24T18:39:09.994Z,10.68
2022-11-24T18:41:38.664Z,8.45
2022-11-24T18:44:08.769Z,11.45
2022-11-24T18:46:37.575Z,11.70
2022-11-24T18:49:06.572Z,12.40
2022-11-24T18:51:34.189Z,11.85
2022-11-24T18:54:03.624Z,13.98
2022-11-24T18:56:31.827Z,13.63
2022-11-24T18:59:00.242Z,13.18
2022-11-24T19:01:29.297Z,19.85
2022-11-24T19:03:59.313Z,17.30
2022-11-24T19:06:35.590Z,16.33
2022-11-24T19:09:09.628Z,14.68
2022-11-24T19:11:39.185Z,14.82
